Terminal Aerodrome Forecast
Issued by NWS Brownsville, TX

Home | Current Version | Previous Version | Text Only | Print | Product List | Glossary On
Versions: 1 2 3 4 5 6 7 8 9 10 11 12 13 14 15 16 17 18 19 20 21 22 23 24
914
FTUS44 KBRO 100216 AAB
TAFHRL
TAF AMD
KHRL 100216Z 1002/1024 33010KT P6SM SCT028 OVC040
     FM100600 33009KT P6SM OVC025
     FM101300 32009KT P6SM OVC020=

USA.gov is the U.S. government's official web portal to all federal, state and local government web resources and services.